sensor_id;sensor_type;location;lat;lon;timestamp;temperature;humidity
18823;DHT22;9540;51.550;7.980;2024-01-11T00:01:09;-7.80;99.90
18823;DHT22;9540;51.550;7.980;2024-01-11T00:03:36;-7.80;99.90
18823;DHT22;9540;51.550;7.980;2024-01-11T00:06:05;-7.90;99.90
18823;DHT22;9540;51.550;7.980;2024-01-11T00:08:32;-7.90;99.90
18823;DHT22;9540;51.550;7.980;2024-01-11T00:10:59;-7.90;99.90
18823;DHT22;9540;51.550;7.980;2024-01-11T00:13:26;-7.90;99.90
18823;DHT22;9540;51.550;7.980;2024-01-11T00:15:54;-7.90;99.90
18823;DHT22;9540;51.550;7.980;2024-01-11T00:18:21;-7.90;99.90
18823;DHT22;9540;51.550;7.980;2024-01-11T00:20:49;-7.90;99.90
18823;DHT22;9540;51.550;7.980;2024-01-11T00:23:19;-7.90;99.90
18823;DHT22;9540;51.550;7.980;2024-01-11T00:25:46;-7.90;99.90
18823;DHT22;9540;51.550;7.980;2024-01-11T00:28:13;-8.00;99.90
18823;DHT22;9540;51.550;7.980;2024-01-11T00:30:40;-8.00;99.90
18823;DHT22;9540;51.550;7.980;2024-01-11T00:33:07;-8.00;99.90
18823;DHT22;9540;51.550;7.980;2024-01-11T00:35:35;-8.00;99.90
18823;DHT22;9540;51.550;7.980;2024-01-11T00:38:02;-8.00;99.90
18823;DHT22;9540;51.550;7.980;2024-01-11T00:40:30;-8.00;99.90
18823;DHT22;9540;51.550;7.980;2024-01-11T00:42:57;-8.10;99.90
18823;DHT22;9540;51.550;7.980;2024-01-11T00:45:24;-8.10;99.90
18823;DHT22;9540;51.550;7.980;2024-01-11T00:47:51;-8.20;99.90
18823;DHT22;9540;51.550;7.980;2024-01-11T00:50:18;-8.20;99.90
18823;DHT22;9540;51.550;7.980;2024-01-11T00:52:45;-8.20;99.90
18823;DHT22;9540;51.550;7.980;2024-01-11T00:55:12;-8.20;99.90
18823;DHT22;9540;51.550;7.980;2024-01-11T00:57:43;-8.20;99.90
18823;DHT22;9540;51.550;7.980;2024-01-11T01:00:11;-8.20;99.90
18823;DHT22;9540;51.550;7.980;2024-01-11T01:02:40;-8.10;99.90
18823;DHT22;9540;51.550;7.980;2024-01-11T01:05:08;-8.10;99.90
18823;DHT22;9540;51.550;7.980;2024-01-11T01:07:35;-8.10;99.90
18823;DHT22;9540;51.550;7.980;2024-01-11T01:10:02;-8.10;99.90
18823;DHT22;9540;51.550;7.980;2024-01-11T01:12:30;-8.10;99.90
18823;DHT22;9540;51.550;7.980;2024-01-11T01:14:58;-8.10;99.90
18823;DHT22;9540;51.550;7.980;2024-01-11T01:17:25;-8.10;99.90
18823;DHT22;9540;51.550;7.980;2024-01-11T01:19:52;-8.10;99.90
18823;DHT22;9540;51.550;7.980;2024-01-11T01:22:19;-8.20;99.90
18823;DHT22;9540;51.550;7.980;2024-01-11T01:24:46;-8.20;99.90
18823;DHT22;9540;51.550;7.980;2024-01-11T01:27:13;-8.20;99.90
18823;DHT22;9540;51.550;7.980;2024-01-11T01:29:40;-8.20;99.90
18823;DHT22;9540;51.550;7.980;2024-01-11T01:32:09;-8.20;99.90
18823;DHT22;9540;51.550;7.980;2024-01-11T01:34:36;-8.20;99.90
18823;DHT22;9540;51.550;7.980;2024-01-11T01:37:03;-8.30;99.90
18823;DHT22;9540;51.550;7.980;2024-01-11T01:39:30;-8.40;99.90
18823;DHT22;9540;51.550;7.980;2024-01-11T01:41:57;-8.40;99.90
18823;DHT22;9540;51.550;7.980;2024-01-11T01:44:24;-8.40;99.90
18823;DHT22;9540;51.550;7.980;2024-01-11T01:46:52;-8.40;99.90
18823;DHT22;9540;51.550;7.980;2024-01-11T01:49:21;-8.40;99.90
18823;DHT22;9540;51.550;7.980;2024-01-11T01:51:49;-8.40;99.90
18823;DHT22;9540;51.550;7.980;2024-01-11T01:54:17;-8.50;99.90
18823;DHT22;9540;51.550;7.980;2024-01-11T01:56:44;-8.50;99.90
18823;DHT22;9540;51.550;7.980;2024-01-11T01:59:11;-8.50;99.90
18823;DHT22;9540;51.550;7.980;2024-01-11T02:01:39;-8.50;99.90
18823;DHT22;9540;51.550;7.980;2024-01-11T02:04:07;-8.50;99.90
18823;DHT22;9540;51.550;7.980;2024-01-11T02:06:35;-8.50;99.90
18823;DHT22;9540;51.550;7.980;2024-01-11T02:09:03;-8.50;99.90
18823;DHT22;9540;51.550;7.980;2024-01-11T02:11:30;-8.60;99.90
18823;DHT22;9540;51.550;7.980;2024-01-11T02:13:57;-8.60;99.90
18823;DHT22;9540;51.550;7.980;2024-01-11T02:16:25;-8.60;99.90
18823;DHT22;9540;51.550;7.980;2024-01-11T02:18:52;-8.60;99.90
18823;DHT22;9540;51.550;7.980;2024-01-11T02:21:19;-8.70;99.90
18823;DHT22;9540;51.550;7.980;2024-01-11T02:24:02;-8.70;99.90
18823;DHT22;9540;51.550;7.980;2024-01-11T02:26:29;-8.70;99.90
18823;DHT22;9540;51.550;7.980;2024-01-11T02:28:56;-8.70;99.90
18823;DHT22;9540;51.550;7.980;2024-01-11T02:31:24;-8.80;99.90
18823;DHT22;9540;51.550;7.980;2024-01-11T02:33:51;-8.80;99.90
18823;DHT22;9540;51.550;7.980;2024-01-11T02:36:19;-8.80;99.90
18823;DHT22;9540;51.550;7.980;2024-01-11T02:38:47;-8.80;99.90
18823;DHT22;9540;51.550;7.980;2024-01-11T02:41:16;-8.80;99.90
18823;DHT22;9540;51.550;7.980;2024-01-11T02:43:46;-8.80;99.90
18823;DHT22;9540;51.550;7.980;2024-01-11T02:46:14;-8.80;99.90
18823;DHT22;9540;51.550;7.980;2024-01-11T02:48:42;-8.80;99.90
18823;DHT22;9540;51.550;7.980;2024-01-11T02:51:09;-8.80;99.90
18823;DHT22;9540;51.550;7.980;2024-01-11T02:53:36;-8.80;99.90
18823;DHT22;9540;51.550;7.980;2024-01-11T02:56:03;-8.80;99.90
18823;DHT22;9540;51.550;7.980;2024-01-11T02:58:32;-8.80;99.90
18823;DHT22;9540;51.550;7.980;2024-01-11T03:00:59;-8.90;99.90
18823;DHT22;9540;51.550;7.980;2024-01-11T03:03:26;-8.90;99.90
18823;DHT22;9540;51.550;7.980;2024-01-11T03:05:53;-8.80;99.90
18823;DHT22;9540;51.550;7.980;2024-01-11T03:08:20;-8.80;99.90
18823;DHT22;9540;51.550;7.980;2024-01-11T03:10:47;-8.70;99.90
18823;DHT22;9540;51.550;7.980;2024-01-11T03:13:14;-8.80;99.90
18823;DHT22;9540;51.550;7.980;2024-01-11T03:15:42;-8.80;99.90
18823;DHT22;9540;51.550;7.980;2024-01-11T03:18:10;-8.80;99.90
18823;DHT22;9540;51.550;7.980;2024-01-11T03:20:37;-8.80;99.90
18823;DHT22;9540;51.550;7.980;2024-01-11T03:23:04;-8.80;99.90
18823;DHT22;9540;51.550;7.980;2024-01-11T03:25:31;-8.80;99.90
18823;DHT22;9540;51.550;7.980;2024-01-11T03:27:58;-8.80;99.90
18823;DHT22;9540;51.550;7.980;2024-01-11T03:30:25;-8.90;99.90
18823;DHT22;9540;51.550;7.980;2024-01-11T03:32:54;-8.90;99.90
18823;DHT22;9540;51.550;7.980;2024-01-11T03:35:21;-8.90;99.90
18823;DHT22;9540;51.550;7.980;2024-01-11T03:37:48;-8.90;99.90
18823;DHT22;9540;51.550;7.980;2024-01-11T03:40:15;-8.90;99.90
18823;DHT22;9540;51.550;7.980;2024-01-11T03:42:42;-8.90;99.90
18823;DHT22;9540;51.550;7.980;2024-01-11T03:45:09;-8.90;99.90
18823;DHT22;9540;51.550;7.980;2024-01-11T03:47:36;-9.00;99.90
18823;DHT22;9540;51.550;7.980;2024-01-11T03:50:06;-9.00;99.90
18823;DHT22;9540;51.550;7.980;2024-01-11T03:52:33;-9.00;99.90
18823;DHT22;9540;51.550;7.980;2024-01-11T03:55:00;-9.00;99.90
18823;DHT22;9540;51.550;7.980;2024-01-11T03:57:27;-9.00;99.90
18823;DHT22;9540;51.550;7.980;2024-01-11T03:59:54;-9.10;99.90
18823;DHT22;9540;51.550;7.980;2024-01-11T04:02:21;-9.10;99.90
18823;DHT22;9540;51.550;7.980;2024-01-11T04:04:48;-9.10;99.90
18823;DHT22;9540;51.550;7.980;2024-01-11T04:07:16;-9.10;99.90
18823;DHT22;9540;51.550;7.980;2024-01-11T04:09:44;-9.20;99.90
18823;DHT22;9540;51.550;7.980;2024-01-11T04:12:12;-9.20;99.90
18823;DHT22;9540;51.550;7.980;2024-01-11T04:14:39;-9.20;99.90
18823;DHT22;9540;51.550;7.980;2024-01-11T04:17:06;-9.20;99.90
18823;DHT22;9540;51.550;7.980;2024-01-11T04:19:33;-9.20;99.90
18823;DHT22;9540;51.550;7.980;2024-01-11T04:22:00;-9.20;99.90
18823;DHT22;9540;51.550;7.980;2024-01-11T04:24:29;-9.10;99.90
18823;DHT22;9540;51.550;7.980;2024-01-11T04:26:56;-9.10;99.90
18823;DHT22;9540;51.550;7.980;2024-01-11T04:29:23;-9.10;99.90
18823;DHT22;9540;51.550;7.980;2024-01-11T04:31:50;-9.20;99.90
18823;DHT22;9540;51.550;7.980;2024-01-11T04:34:17;-9.20;99.90
18823;DHT22;9540;51.550;7.980;2024-01-11T04:36:44;-9.10;99.90
18823;DHT22;9540;51.550;7.980;2024-01-11T04:39:11;-9.10;99.90
18823;DHT22;9540;51.550;7.980;2024-01-11T04:41:39;-9.10;99.90
18823;DHT22;9540;51.550;7.980;2024-01-11T04:44:06;-9.20;99.90
18823;DHT22;9540;51.550;7.980;2024-01-11T04:46:34;-9.20;99.90
18823;DHT22;9540;51.550;7.980;2024-01-11T04:49:01;-9.20;99.90
18823;DHT22;9540;51.550;7.980;2024-01-11T04:51:28;-9.30;99.90
18823;DHT22;9540;51.550;7.980;2024-01-11T04:53:55;-9.30;99.90
18823;DHT22;9540;51.550;7.980;2024-01-11T04:56:22;-9.30;99.90
18823;DHT22;9540;51.550;7.980;2024-01-11T04:58:51;-9.30;99.90
18823;DHT22;9540;51.550;7.980;2024-01-11T05:01:18;-9.30;99.90
18823;DHT22;9540;51.550;7.980;2024-01-11T05:03:46;-9.30;99.90
18823;DHT22;9540;51.550;7.980;2024-01-11T05:06:16;-9.30;99.90
18823;DHT22;9540;51.550;7.980;2024-01-11T05:08:43;-9.30;99.90
18823;DHT22;9540;51.550;7.980;2024-01-11T05:11:15;-9.30;99.90
18823;DHT22;9540;51.550;7.980;2024-01-11T05:13:43;-9.30;99.90
18823;DHT22;9540;51.550;7.980;2024-01-11T05:16:24;-9.30;99.90
18823;DHT22;9540;51.550;7.980;2024-01-11T05:18:53;-9.30;99.90
18823;DHT22;9540;51.550;7.980;2024-01-11T05:21:20;-9.30;99.90
18823;DHT22;9540;51.550;7.980;2024-01-11T05:23:48;-9.30;99.90
18823;DHT22;9540;51.550;7.980;2024-01-11T05:26:16;-9.30;99.90
18823;DHT22;9540;51.550;7.980;2024-01-11T05:28:44;-9.20;99.90
18823;DHT22;9540;51.550;7.980;2024-01-11T05:31:12;-9.20;99.90
18823;DHT22;9540;51.550;7.980;2024-01-11T05:33:40;-9.30;99.90
18823;DHT22;9540;51.550;7.980;2024-01-11T05:36:08;-9.30;99.90
18823;DHT22;9540;51.550;7.980;2024-01-11T05:38:35;-9.30;99.90
18823;DHT22;9540;51.550;7.980;2024-01-11T05:41:02;-9.30;99.90
18823;DHT22;9540;51.550;7.980;2024-01-11T05:43:30;-9.30;99.90
18823;DHT22;9540;51.550;7.980;2024-01-11T05:45:57;-9.20;99.90
18823;DHT22;9540;51.550;7.980;2024-01-11T05:48:24;-9.20;99.90
18823;DHT22;9540;51.550;7.980;2024-01-11T05:50:53;-9.20;99.90
18823;DHT22;9540;51.550;7.980;2024-01-11T05:53:20;-9.10;99.90
18823;DHT22;9540;51.550;7.980;2024-01-11T05:55:47;-8.90;99.90
18823;DHT22;9540;51.550;7.980;2024-01-11T05:58:14;-8.80;99.90
18823;DHT22;9540;51.550;7.980;2024-01-11T06:00:41;-8.70;99.90
18823;DHT22;9540;51.550;7.980;2024-01-11T06:03:08;-8.60;99.90
18823;DHT22;9540;51.550;7.980;2024-01-11T06:05:35;-8.50;99.90
18823;DHT22;9540;51.550;7.980;2024-01-11T06:08:04;-8.50;99.90
18823;DHT22;9540;51.550;7.980;2024-01-11T06:10:31;-8.60;99.90
18823;DHT22;9540;51.550;7.980;2024-01-11T06:12:58;-8.60;99.90
18823;DHT22;9540;51.550;7.980;2024-01-11T06:15:25;-8.50;99.90
18823;DHT22;9540;51.550;7.980;2024-01-11T06:17:52;-8.50;99.90
18823;DHT22;9540;51.550;7.980;2024-01-11T06:20:19;-8.50;99.90
18823;DHT22;9540;51.550;7.980;2024-01-11T06:22:46;-8.50;99.90
18823;DHT22;9540;51.550;7.980;2024-01-11T06:25:15;-8.50;99.90
18823;DHT22;9540;51.550;7.980;2024-01-11T06:27:42;-8.50;99.90
18823;DHT22;9540;51.550;7.980;2024-01-11T06:30:11;-8.50;99.90
18823;DHT22;9540;51.550;7.980;2024-01-11T06:32:38;-8.50;99.90
18823;DHT22;9540;51.550;7.980;2024-01-11T06:35:06;-8.60;99.90
18823;DHT22;9540;51.550;7.980;2024-01-11T06:37:33;-8.50;99.90
18823;DHT22;9540;51.550;7.980;2024-01-11T06:40:01;-8.60;99.90
18823;DHT22;9540;51.550;7.980;2024-01-11T06:42:30;-8.70;99.90
18823;DHT22;9540;51.550;7.980;2024-01-11T06:44:57;-8.70;99.90
18823;DHT22;9540;51.550;7.980;2024-01-11T06:47:24;-8.70;99.90
18823;DHT22;9540;51.550;7.980;2024-01-11T06:49:51;-8.70;99.90
18823;DHT22;9540;51.550;7.980;2024-01-11T06:52:18;-8.80;99.90
18823;DHT22;9540;51.550;7.980;2024-01-11T06:54:46;-8.70;99.90
18823;DHT22;9540;51.550;7.980;2024-01-11T06:57:13;-8.80;99.90
18823;DHT22;9540;51.550;7.980;2024-01-11T06:59:41;-8.70;99.90
18823;DHT22;9540;51.550;7.980;2024-01-11T07:02:09;-8.80;99.90
18823;DHT22;9540;51.550;7.980;2024-01-11T07:04:43;-8.80;99.90
18823;DHT22;9540;51.550;7.980;2024-01-11T07:07:11;-8.80;99.90
18823;DHT22;9540;51.550;7.980;2024-01-11T07:09:38;-8.80;99.90
18823;DHT22;9540;51.550;7.980;2024-01-11T07:12:05;-8.70;99.90
18823;DHT22;9540;51.550;7.980;2024-01-11T07:14:32;-8.70;99.90
18823;DHT22;9540;51.550;7.980;2024-01-11T07:17:01;-8.80;99.90
18823;DHT22;9540;51.550;7.980;2024-01-11T07:19:29;-8.80;99.90
18823;DHT22;9540;51.550;7.980;2024-01-11T07:21:56;-8.80;99.90
18823;DHT22;9540;51.550;7.980;2024-01-11T07:24:24;-8.80;99.90
18823;DHT22;9540;51.550;7.980;2024-01-11T07:26:52;-8.80;99.90
18823;DHT22;9540;51.550;7.980;2024-01-11T07:29:19;-8.80;99.90
18823;DHT22;9540;51.550;7.980;2024-01-11T07:31:46;-8.70;99.90
18823;DHT22;9540;51.550;7.980;2024-01-11T07:34:14;-8.70;99.90
18823;DHT22;9540;51.550;7.980;2024-01-11T07:36:43;-8.70;99.90
18823;DHT22;9540;51.550;7.980;2024-01-11T07:39:10;-8.70;99.90
18823;DHT22;9540;51.550;7.980;2024-01-11T07:41:37;-8.70;99.90
18823;DHT22;9540;51.550;7.980;2024-01-11T07:44:04;-8.60;99.90
18823;DHT22;9540;51.550;7.980;2024-01-11T07:46:31;-8.60;99.90
18823;DHT22;9540;51.550;7.980;2024-01-11T07:48:58;-8.50;99.90
18823;DHT22;9540;51.550;7.980;2024-01-11T07:51:27;-8.50;99.90
18823;DHT22;9540;51.550;7.980;2024-01-11T07:53:54;-8.30;99.90
18823;DHT22;9540;51.550;7.980;2024-01-11T07:56:21;-8.20;99.90
18823;DHT22;9540;51.550;7.980;2024-01-11T07:58:48;-8.20;99.90
18823;DHT22;9540;51.550;7.980;2024-01-11T08:01:16;-8.10;99.90
18823;DHT22;9540;51.550;7.980;2024-01-11T08:03:43;-8.00;99.90
18823;DHT22;9540;51.550;7.980;2024-01-11T08:06:11;-7.90;99.90
18823;DHT22;9540;51.550;7.980;2024-01-11T08:08:39;-7.80;99.90
18823;DHT22;9540;51.550;7.980;2024-01-11T08:11:07;-7.60;99.90
18823;DHT22;9540;51.550;7.980;2024-01-11T08:13:34;-7.50;99.90
18823;DHT22;9540;51.550;7.980;2024-01-11T08:16:03;-7.40;99.90
18823;DHT22;9540;51.550;7.980;2024-01-11T08:18:35;-7.20;99.90
18823;DHT22;9540;51.550;7.980;2024-01-11T08:21:02;-7.00;99.90
18823;DHT22;9540;51.550;7.980;2024-01-11T08:23:32;-6.70;99.90
18823;DHT22;9540;51.550;7.980;2024-01-11T08:26:00;-6.50;99.90
18823;DHT22;9540;51.550;7.980;2024-01-11T08:28:27;-6.20;99.90
18823;DHT22;9540;51.550;7.980;2024-01-11T08:30:54;-6.00;99.90
18823;DHT22;9540;51.550;7.980;2024-01-11T08:33:22;-5.80;99.90
18823;DHT22;9540;51.550;7.980;2024-01-11T08:35:49;-5.50;99.90
18823;DHT22;9540;51.550;7.980;2024-01-11T08:38:16;-5.20;99.90
18823;DHT22;9540;51.550;7.980;2024-01-11T08:40:43;-5.00;99.90
18823;DHT22;9540;51.550;7.980;2024-01-11T08:43:11;-4.70;99.90
18823;DHT22;9540;51.550;7.980;2024-01-11T08:45:38;-4.10;99.90
18823;DHT22;9540;51.550;7.980;2024-01-11T08:48:06;-3.50;99.90
18823;DHT22;9540;51.550;7.980;2024-01-11T08:50:33;-3.10;99.90
18823;DHT22;9540;51.550;7.980;2024-01-11T08:53:00;-3.00;99.90
18823;DHT22;9540;51.550;7.980;2024-01-11T08:55:27;-2.70;99.90
18823;DHT22;9540;51.550;7.980;2024-01-11T08:57:54;-2.40;99.90
18823;DHT22;9540;51.550;7.980;2024-01-11T09:00:23;-1.40;99.90
18823;DHT22;9540;51.550;7.980;2024-01-11T09:02:51;-0.60;99.90
18823;DHT22;9540;51.550;7.980;2024-01-11T09:05:18;0.10;99.90
18823;DHT22;9540;51.550;7.980;2024-01-11T09:07:45;0.50;99.90
18823;DHT22;9540;51.550;7.980;2024-01-11T09:10:12;0.00;99.90
18823;DHT22;9540;51.550;7.980;2024-01-11T09:12:40;-0.30;99.90
18823;DHT22;9540;51.550;7.980;2024-01-11T09:15:07;-0.50;99.90
18823;DHT22;9540;51.550;7.980;2024-01-11T09:17:37;-0.80;99.90
18823;DHT22;9540;51.550;7.980;2024-01-11T09:20:04;-1.20;99.90
18823;DHT22;9540;51.550;7.980;2024-01-11T09:22:32;-1.00;99.90
18823;DHT22;9540;51.550;7.980;2024-01-11T09:24:59;-0.80;99.90
18823;DHT22;9540;51.550;7.980;2024-01-11T09:27:26;-0.40;99.90
18823;DHT22;9540;51.550;7.980;2024-01-11T09:29:53;0.80;99.90
18823;DHT22;9540;51.550;7.980;2024-01-11T09:32:20;1.50;99.90
18823;DHT22;9540;51.550;7.980;2024-01-11T09:34:48;3.20;99.90
18823;DHT22;9540;51.550;7.980;2024-01-11T09:37:16;5.00;99.90
18823;DHT22;9540;51.550;7.980;2024-01-11T09:39:43;5.70;99.90
18823;DHT22;9540;51.550;7.980;2024-01-11T09:42:10;6.00;93.70
18823;DHT22;9540;51.550;7.980;2024-01-11T09:44:38;5.50;93.10
18823;DHT22;9540;51.550;7.980;2024-01-11T09:47:07;6.00;92.90
18823;DHT22;9540;51.550;7.980;2024-01-11T09:49:36;5.40;91.80
18823;DHT22;9540;51.550;7.980;2024-01-11T09:52:06;4.50;92.80
18823;DHT22;9540;51.550;7.980;2024-01-11T09:54:35;4.60;93.70
18823;DHT22;9540;51.550;7.980;2024-01-11T09:57:04;4.50;92.80
18823;DHT22;9540;51.550;7.980;2024-01-11T09:59:32;4.20;93.00
18823;DHT22;9540;51.550;7.980;2024-01-11T10:02:01;3.80;94.20
18823;DHT22;9540;51.550;7.980;2024-01-11T10:04:29;3.60;95.60
18823;DHT22;9540;51.550;7.980;2024-01-11T10:06:56;3.50;96.20
18823;DHT22;9540;51.550;7.980;2024-01-11T10:09:25;3.00;99.80
18823;DHT22;9540;51.550;7.980;2024-01-11T10:11:52;2.80;99.90
18823;DHT22;9540;51.550;7.980;2024-01-11T10:14:20;2.50;99.90
18823;DHT22;9540;51.550;7.980;2024-01-11T10:16:48;2.70;99.90
18823;DHT22;9540;51.550;7.980;2024-01-11T10:19:15;2.80;99.90
18823;DHT22;9540;51.550;7.980;2024-01-11T10:21:42;3.00;99.90
18823;DHT22;9540;51.550;7.980;2024-01-11T10:24:09;3.30;99.90
18823;DHT22;9540;51.550;7.980;2024-01-11T10:26:38;3.60;99.90
18823;DHT22;9540;51.550;7.980;2024-01-11T10:29:06;3.70;99.90
18823;DHT22;9540;51.550;7.980;2024-01-11T10:31:36;4.10;97.20
18823;DHT22;9540;51.550;7.980;2024-01-11T10:34:04;4.20;97.80
18823;DHT22;9540;51.550;7.980;2024-01-11T10:36:31;4.20;96.60
18823;DHT22;9540;51.550;7.980;2024-01-11T10:39:01;3.30;96.80
18823;DHT22;9540;51.550;7.980;2024-01-11T10:41:29;2.70;98.90
18823;DHT22;9540;51.550;7.980;2024-01-11T10:44:01;2.60;99.90
18823;DHT22;9540;51.550;7.980;2024-01-11T10:46:32;2.10;99.90
18823;DHT22;9540;51.550;7.980;2024-01-11T10:49:04;1.80;99.90
18823;DHT22;9540;51.550;7.980;2024-01-11T10:51:32;2.20;99.90
18823;DHT22;9540;51.550;7.980;2024-01-11T10:53:59;2.70;99.90
18823;DHT22;9540;51.550;7.980;2024-01-11T10:56:27;2.60;99.90
18823;DHT22;9540;51.550;7.980;2024-01-11T10:58:56;2.30;99.90
18823;DHT22;9540;51.550;7.980;2024-01-11T11:01:25;1.70;99.90
18823;DHT22;9540;51.550;7.980;2024-01-11T11:03:53;1.40;99.90
18823;DHT22;9540;51.550;7.980;2024-01-11T11:06:22;1.10;99.90
18823;DHT22;9540;51.550;7.980;2024-01-11T11:08:50;0.90;99.90
18823;DHT22;9540;51.550;7.980;2024-01-11T11:11:19;1.10;99.90
18823;DHT22;9540;51.550;7.980;2024-01-11T11:13:47;1.60;99.90
18823;DHT22;9540;51.550;7.980;2024-01-11T11:16:15;1.20;99.90
18823;DHT22;9540;51.550;7.980;2024-01-11T11:18:44;0.60;99.90
18823;DHT22;9540;51.550;7.980;2024-01-11T11:21:11;0.40;99.90
18823;DHT22;9540;51.550;7.980;2024-01-11T11:23:38;0.60;99.90
18823;DHT22;9540;51.550;7.980;2024-01-11T11:26:06;0.70;99.90
18823;DHT22;9540;51.550;7.980;2024-01-11T11:28:34;0.60;99.90
18823;DHT22;9540;51.550;7.980;2024-01-11T11:31:03;0.60;99.90
18823;DHT22;9540;51.550;7.980;2024-01-11T11:33:30;0.40;99.90
18823;DHT22;9540;51.550;7.980;2024-01-11T11:35:59;0.50;99.90
18823;DHT22;9540;51.550;7.980;2024-01-11T11:38:27;0.80;99.90
18823;DHT22;9540;51.550;7.980;2024-01-11T11:40:56;1.20;99.90
18823;DHT22;9540;51.550;7.980;2024-01-11T11:43:24;1.60;99.90
18823;DHT22;9540;51.550;7.980;2024-01-11T11:45:52;2.00;99.90
18823;DHT22;9540;51.550;7.980;2024-01-11T11:48:50;2.00;99.90
18823;DHT22;9540;51.550;7.980;2024-01-11T11:51:19;1.90;99.90
18823;DHT22;9540;51.550;7.980;2024-01-11T11:53:48;1.70;99.90
18823;DHT22;9540;51.550;7.980;2024-01-11T11:56:16;1.60;99.90
18823;DHT22;9540;51.550;7.980;2024-01-11T11:58:44;1.90;99.90
18823;DHT22;9540;51.550;7.980;2024-01-11T12:01:13;1.70;99.90
18823;DHT22;9540;51.550;7.980;2024-01-11T12:03:41;1.60;99.90
18823;DHT22;9540;51.550;7.980;2024-01-11T12:06:15;2.00;99.90
18823;DHT22;9540;51.550;7.980;2024-01-11T12:08:43;2.70;99.90
18823;DHT22;9540;51.550;7.980;2024-01-11T12:11:13;3.30;99.90
18823;DHT22;9540;51.550;7.980;2024-01-11T12:13:41;3.70;99.90
18823;DHT22;9540;51.550;7.980;2024-01-11T12:16:10;4.10;99.90
18823;DHT22;9540;51.550;7.980;2024-01-11T12:18:37;4.50;99.90
18823;DHT22;9540;51.550;7.980;2024-01-11T12:21:05;4.90;99.90
18823;DHT22;9540;51.550;7.980;2024-01-11T12:23:34;4.90;99.90
18823;DHT22;9540;51.550;7.980;2024-01-11T12:26:03;5.80;97.30
18823;DHT22;9540;51.550;7.980;2024-01-11T12:28:31;6.10;96.20
18823;DHT22;9540;51.550;7.980;2024-01-11T12:30:58;6.60;94.30
18823;DHT22;9540;51.550;7.980;2024-01-11T12:33:27;7.50;90.30
18823;DHT22;9540;51.550;7.980;2024-01-11T12:35:54;7.60;87.70
18823;DHT22;9540;51.550;7.980;2024-01-11T12:38:21;7.60;86.70
18823;DHT22;9540;51.550;7.980;2024-01-11T12:40:48;7.20;87.20
18823;DHT22;9540;51.550;7.980;2024-01-11T12:43:17;6.80;89.70
18823;DHT22;9540;51.550;7.980;2024-01-11T12:45:44;6.90;90.00
18823;DHT22;9540;51.550;7.980;2024-01-11T12:48:12;6.00;89.20
18823;DHT22;9540;51.550;7.980;2024-01-11T12:50:42;5.60;90.10
18823;DHT22;9540;51.550;7.980;2024-01-11T12:53:10;5.20;90.20
18823;DHT22;9540;51.550;7.980;2024-01-11T12:55:44;4.30;91.60
18823;DHT22;9540;51.550;7.980;2024-01-11T12:58:11;3.70;93.10
18823;DHT22;9540;51.550;7.980;2024-01-11T13:00:39;3.70;93.40
18823;DHT22;9540;51.550;7.980;2024-01-11T13:03:06;3.40;92.80
18823;DHT22;9540;51.550;7.980;2024-01-11T13:05:35;2.90;92.60
18823;DHT22;9540;51.550;7.980;2024-01-11T13:08:02;2.30;93.50
18823;DHT22;9540;51.550;7.980;2024-01-11T13:10:30;1.90;96.10
18823;DHT22;9540;51.550;7.980;2024-01-11T13:12:58;1.70;99.90
18823;DHT22;9540;51.550;7.980;2024-01-11T13:15:26;1.70;99.90
18823;DHT22;9540;51.550;7.980;2024-01-11T13:17:56;1.60;99.90
18823;DHT22;9540;51.550;7.980;2024-01-11T13:20:23;1.60;99.90
18823;DHT22;9540;51.550;7.980;2024-01-11T13:25:35;1.10;99.90
18823;DHT22;9540;51.550;7.980;2024-01-11T13:28:03;1.00;99.90
18823;DHT22;9540;51.550;7.980;2024-01-11T13:30:30;0.80;99.90
18823;DHT22;9540;51.550;7.980;2024-01-11T13:32:58;0.70;99.90
18823;DHT22;9540;51.550;7.980;2024-01-11T13:35:26;0.70;99.90
18823;DHT22;9540;51.550;7.980;2024-01-11T13:37:53;0.60;99.90
18823;DHT22;9540;51.550;7.980;2024-01-11T13:40:21;0.60;99.90
18823;DHT22;9540;51.550;7.980;2024-01-11T13:42:48;0.50;99.90
18823;DHT22;9540;51.550;7.980;2024-01-11T13:45:15;0.30;99.90
18823;DHT22;9540;51.550;7.980;2024-01-11T13:47:42;0.30;99.90
18823;DHT22;9540;51.550;7.980;2024-01-11T13:50:10;0.20;99.90
18823;DHT22;9540;51.550;7.980;2024-01-11T13:52:38;0.20;99.90
18823;DHT22;9540;51.550;7.980;2024-01-11T13:55:05;0.10;99.90
18823;DHT22;9540;51.550;7.980;2024-01-11T13:57:33;0.00;99.90
18823;DHT22;9540;51.550;7.980;2024-01-11T14:00:00;-0.10;99.90
18823;DHT22;9540;51.550;7.980;2024-01-11T14:02:28;-0.10;99.90
18823;DHT22;9540;51.550;7.980;2024-01-11T14:04:55;-0.20;99.90
18823;DHT22;9540;51.550;7.980;2024-01-11T14:07:23;-0.10;99.90
18823;DHT22;9540;51.550;7.980;2024-01-11T14:09:50;-0.10;99.90
18823;DHT22;9540;51.550;7.980;2024-01-11T14:12:18;-0.10;99.90
18823;DHT22;9540;51.550;7.980;2024-01-11T14:14:45;-0.10;99.90
18823;DHT22;9540;51.550;7.980;2024-01-11T14:17:12;-0.10;99.90
18823;DHT22;9540;51.550;7.980;2024-01-11T14:19:39;-0.10;99.90
18823;DHT22;9540;51.550;7.980;2024-01-11T14:22:06;-0.10;99.90
18823;DHT22;9540;51.550;7.980;2024-01-11T14:24:34;-0.10;99.90
18823;DHT22;9540;51.550;7.980;2024-01-11T14:27:01;0.10;99.90
18823;DHT22;9540;51.550;7.980;2024-01-11T14:29:28;0.30;99.90
18823;DHT22;9540;51.550;7.980;2024-01-11T14:31:55;0.50;99.90
18823;DHT22;9540;51.550;7.980;2024-01-11T14:34:22;0.90;99.90
18823;DHT22;9540;51.550;7.980;2024-01-11T14:36:49;1.20;99.90
18823;DHT22;9540;51.550;7.980;2024-01-11T14:39:17;1.50;99.90
18823;DHT22;9540;51.550;7.980;2024-01-11T14:41:45;1.70;99.90
18823;DHT22;9540;51.550;7.980;2024-01-11T14:44:12;2.00;99.90
18823;DHT22;9540;51.550;7.980;2024-01-11T14:46:39;2.20;99.90
18823;DHT22;9540;51.550;7.980;2024-01-11T14:49:10;2.30;99.90
18823;DHT22;9540;51.550;7.980;2024-01-11T14:51:37;2.50;99.90
18823;DHT22;9540;51.550;7.980;2024-01-11T14:54:05;2.40;99.90
18823;DHT22;9540;51.550;7.980;2024-01-11T14:56:33;2.30;99.90
18823;DHT22;9540;51.550;7.980;2024-01-11T14:59:02;1.90;99.90
18823;DHT22;9540;51.550;7.980;2024-01-11T15:01:30;1.60;99.90
18823;DHT22;9540;51.550;7.980;2024-01-11T15:03:58;1.40;99.90
18823;DHT22;9540;51.550;7.980;2024-01-11T15:06:25;1.30;99.90
18823;DHT22;9540;51.550;7.980;2024-01-11T15:08:52;1.00;99.90
18823;DHT22;9540;51.550;7.980;2024-01-11T15:11:19;0.90;99.90
18823;DHT22;9540;51.550;7.980;2024-01-11T15:13:46;0.60;99.90
18823;DHT22;9540;51.550;7.980;2024-01-11T15:16:14;0.40;99.90
18823;DHT22;9540;51.550;7.980;2024-01-11T15:18:41;0.40;99.90
18823;DHT22;9540;51.550;7.980;2024-01-11T15:21:08;0.30;99.90
18823;DHT22;9540;51.550;7.980;2024-01-11T15:23:35;0.20;99.90
18823;DHT22;9540;51.550;7.980;2024-01-11T15:26:03;0.10;99.90
18823;DHT22;9540;51.550;7.980;2024-01-11T15:28:30;0.00;99.90
18823;DHT22;9540;51.550;7.980;2024-01-11T15:30:57;-0.10;99.90
18823;DHT22;9540;51.550;7.980;2024-01-11T15:33:25;-0.20;99.90
18823;DHT22;9540;51.550;7.980;2024-01-11T15:35:52;-0.20;99.90
18823;DHT22;9540;51.550;7.980;2024-01-11T15:38:19;-0.20;99.90
18823;DHT22;9540;51.550;7.980;2024-01-11T15:40:46;-0.30;99.90
18823;DHT22;9540;51.550;7.980;2024-01-11T15:43:13;-0.40;99.90
18823;DHT22;9540;51.550;7.980;2024-01-11T15:45:41;-0.40;99.90
18823;DHT22;9540;51.550;7.980;2024-01-11T15:48:08;-0.40;99.90
18823;DHT22;9540;51.550;7.980;2024-01-11T15:50:36;-0.40;99.90
18823;DHT22;9540;51.550;7.980;2024-01-11T15:53:04;-0.40;99.90
18823;DHT22;9540;51.550;7.980;2024-01-11T15:55:31;-0.50;99.90
18823;DHT22;9540;51.550;7.980;2024-01-11T15:57:58;-0.50;99.90